createdAt,value
2018-05-09T00:00:21.530Z,69.10
2018-05-09T00:02:47.803Z,68.50
2018-05-09T00:05:14.011Z,68.80
2018-05-09T00:07:40.313Z,69.00
2018-05-09T00:10:07.295Z,70.20
2018-05-09T00:12:33.613Z,69.20
2018-05-09T00:15:00.575Z,69.50
2018-05-09T00:17:27.277Z,68.50
2018-05-09T00:19:53.544Z,68.60
2018-05-09T00:22:20.567Z,69.40
2018-05-09T00:24:46.845Z,69.10
2018-05-09T00:27:13.118Z,69.80
2018-05-09T00:29:39.350Z,70.60
2018-05-09T00:32:05.633Z,70.70
2018-05-09T00:34:32.271Z,70.70
2018-05-09T00:36:59.273Z,71.70
2018-05-09T00:39:25.585Z,71.30
2018-05-09T00:41:51.823Z,71.40
2018-05-09T00:44:18.067Z,71.40
2018-05-09T00:46:44.305Z,71.40
2018-05-09T00:49:10.574Z,71.80
2018-05-09T00:51:36.815Z,70.90
2018-05-09T00:54:15.440Z,70.50
2018-05-09T00:56:41.641Z,70.20
2018-05-09T00:59:07.883Z,70.80
2018-05-09T01:01:34.125Z,71.70
2018-05-09T01:04:00.365Z,71.90
2018-05-09T01:06:27.356Z,73.10
2018-05-09T01:08:54.418Z,74.20
2018-05-09T01:11:21.441Z,73.10
2018-05-09T01:13:47.741Z,73.30
2018-05-09T01:16:14.127Z,73.50
2018-05-09T01:18:40.507Z,73.10
2018-05-09T01:21:07.509Z,73.20
2018-05-09T01:23:33.771Z,73.80
2018-05-09T01:26:00.760Z,74.10
2018-05-09T01:28:27.018Z,73.60
2018-05-09T01:30:53.291Z,74.00
2018-05-09T01:33:28.351Z,74.60
2018-05-09T01:35:55.041Z,74.00
2018-05-09T01:38:31.659Z,74.20
2018-05-09T01:40:57.926Z,74.50
2018-05-09T01:43:24.563Z,75.30
2018-05-09T01:45:50.867Z,75.30
2018-05-09T01:48:17.852Z,76.20
2018-05-09T01:50:44.077Z,75.80
2018-05-09T01:53:10.353Z,75.90
2018-05-09T01:55:37.368Z,76.30
2018-05-09T01:58:03.708Z,75.90
2018-05-09T02:00:30.323Z,75.70
2018-05-09T02:02:56.952Z,75.80
2018-05-09T02:05:23.197Z,76.00
2018-05-09T02:07:50.197Z,76.60
2018-05-09T02:10:16.432Z,75.70
2018-05-09T02:12:42.716Z,76.30
2018-05-09T02:15:08.993Z,76.10
2018-05-09T02:17:35.279Z,75.70
2018-05-09T02:20:02.326Z,76.60
2018-05-09T02:22:28.561Z,75.90
2018-05-09T02:24:54.846Z,76.70
2018-05-09T02:27:21.123Z,76.40
2018-05-09T02:29:47.431Z,76.90
2018-05-09T02:32:13.719Z,77.50
2018-05-09T02:34:39.988Z,77.70
2018-05-09T02:37:06.983Z,77.80
2018-05-09T02:39:33.665Z,78.10
2018-05-09T02:41:59.870Z,78.10
2018-05-09T02:44:26.123Z,78.20
2018-05-09T02:46:53.117Z,78.30
2018-05-09T02:49:19.353Z,78.50
2018-05-09T02:51:45.609Z,78.80
2018-05-09T02:54:12.218Z,79.00
2018-05-09T02:56:39.219Z,79.70
2018-05-09T02:59:05.435Z,79.00
2018-05-09T03:01:32.456Z,79.30
2018-05-09T03:03:59.444Z,80.10
2018-05-09T03:06:25.755Z,79.80
2018-05-09T03:08:52.019Z,80.10
2018-05-09T03:11:18.319Z,76.10
2018-05-09T03:13:45.322Z,77.80
2018-05-09T03:16:12.002Z,74.20
2018-05-09T03:18:38.276Z,75.30
2018-05-09T03:21:04.502Z,74.60
2018-05-09T03:23:30.971Z,75.30
2018-05-09T03:25:57.188Z,76.70
2018-05-09T03:28:23.471Z,78.50
2018-05-09T03:30:49.707Z,79.10
2018-05-09T03:33:15.961Z,79.80
2018-05-09T03:35:42.912Z,80.70
2018-05-09T03:38:09.893Z,81.70
2018-05-09T03:40:36.097Z,79.80
2018-05-09T03:43:02.299Z,79.50
2018-05-09T03:45:28.587Z,79.60
2018-05-09T03:47:54.828Z,80.20
2018-05-09T03:50:21.147Z,80.90
2018-05-09T03:52:47.751Z,81.30
2018-05-09T03:55:13.989Z,81.50
2018-05-09T03:57:40.229Z,81.20
2018-05-09T04:00:06.529Z,78.80
2018-05-09T04:02:45.272Z,79.40
2018-05-09T04:05:23.648Z,80.10
2018-05-09T04:08:02.469Z,80.90
2018-05-09T04:10:28.745Z,80.80
2018-05-09T04:12:55.367Z,80.60
2018-05-09T04:15:22.057Z,81.00
2018-05-09T04:17:48.329Z,81.30
2018-05-09T04:20:14.622Z,81.90
2018-05-09T04:22:40.872Z,82.20
2018-05-09T04:25:07.924Z,82.60
2018-05-09T04:27:34.189Z,82.80
2018-05-09T04:30:00.444Z,82.10
2018-05-09T04:32:27.459Z,78.60
2018-05-09T04:34:54.489Z,78.10
2018-05-09T04:37:20.793Z,78.10
2018-05-09T04:39:47.461Z,78.20
2018-05-09T04:42:14.105Z,78.50
2018-05-09T04:44:40.360Z,80.20
2018-05-09T04:47:06.672Z,81.10
2018-05-09T04:49:33.012Z,82.20
2018-05-09T04:51:59.292Z,82.90
2018-05-09T04:54:26.414Z,82.40
2018-05-09T04:56:52.683Z,82.10
2018-05-09T04:59:19.004Z,82.50
2018-05-09T05:01:45.262Z,80.90
2018-05-09T05:04:11.913Z,79.30
2018-05-09T05:06:38.161Z,79.30
2018-05-09T05:09:04.438Z,78.20
2018-05-09T05:11:30.716Z,75.90
2018-05-09T05:13:57.082Z,73.80
2018-05-09T05:16:23.720Z,74.90
2018-05-09T05:18:50.064Z,76.60
2018-05-09T05:21:16.247Z,78.10
2018-05-09T05:23:42.918Z,78.00
2018-05-09T05:26:09.176Z,78.90
2018-05-09T05:28:35.899Z,79.30
2018-05-09T05:31:02.968Z,80.60
2018-05-09T05:33:29.993Z,80.40
2018-05-09T05:35:56.678Z,81.00
2018-05-09T05:38:22.977Z,81.20
2018-05-09T05:40:50.012Z,79.50
2018-05-09T05:43:16.659Z,77.40
2018-05-09T05:45:42.952Z,79.00
2018-05-09T05:48:09.210Z,79.60
2018-05-09T05:50:35.904Z,79.90
2018-05-09T05:53:02.942Z,80.30
2018-05-09T05:55:29.212Z,79.00
2018-05-09T05:57:55.460Z,80.20
2018-05-09T06:00:21.764Z,78.80
2018-05-09T06:02:48.760Z,78.60
2018-05-09T06:05:15.038Z,78.00
2018-05-09T06:07:42.130Z,77.70
2018-05-09T06:10:08.380Z,73.70
2018-05-09T06:12:35.114Z,74.80
2018-05-09T06:15:01.500Z,73.10
2018-05-09T06:17:27.749Z,72.70
2018-05-09T06:19:54.145Z,74.00
2018-05-09T06:22:20.479Z,72.00
2018-05-09T06:24:46.786Z,71.10
2018-05-09T06:27:13.496Z,71.40
2018-05-09T06:29:40.568Z,69.60
2018-05-09T06:32:07.624Z,72.30
2018-05-09T06:34:34.753Z,66.60
2018-05-09T06:37:01.051Z,65.60
2018-05-09T06:39:27.353Z,63.10
2018-05-09T06:41:54.379Z,62.60
2018-05-09T06:44:20.655Z,62.10
2018-05-09T06:46:46.958Z,61.30
2018-05-09T06:49:13.230Z,64.40
2018-05-09T06:51:40.272Z,60.10
2018-05-09T06:54:07.309Z,63.10
2018-05-09T06:56:33.660Z,62.70
2018-05-09T06:59:00.741Z,60.90
2018-05-09T07:01:27.748Z,61.70
2018-05-09T07:03:54.030Z,60.70
2018-05-09T07:06:20.532Z,61.40
2018-05-09T07:08:46.864Z,60.90
2018-05-09T07:11:13.120Z,60.60
2018-05-09T07:13:40.353Z,62.60
2018-05-09T07:16:06.749Z,62.30
2018-05-09T07:18:33.064Z,63.20
2018-05-09T07:21:00.068Z,59.00
2018-05-09T07:23:26.390Z,59.70
2018-05-09T07:25:52.663Z,59.40
2018-05-09T07:28:19.008Z,57.10
2018-05-09T07:30:46.025Z,58.40
2018-05-09T07:33:12.308Z,58.20
2018-05-09T07:35:39.303Z,56.90
2018-05-09T07:38:05.985Z,55.30
2018-05-09T07:40:32.316Z,55.00
2018-05-09T07:42:59.273Z,57.10
2018-05-09T07:45:25.595Z,58.40
2018-05-09T07:47:51.964Z,57.50
2018-05-09T07:50:18.228Z,55.60
2018-05-09T07:52:44.884Z,55.40
2018-05-09T07:55:11.219Z,54.80
2018-05-09T07:57:37.461Z,55.60
2018-05-09T08:00:03.793Z,55.20
2018-05-09T08:02:30.078Z,55.10
2018-05-09T08:04:56.549Z,53.60
2018-05-09T08:07:25.548Z,52.70
2018-05-09T08:09:51.988Z,52.70
2018-05-09T08:12:19.029Z,53.10
2018-05-09T08:14:46.071Z,55.20
2018-05-09T08:17:12.341Z,55.50
2018-05-09T08:19:38.635Z,54.00
2018-05-09T08:22:04.966Z,54.50
2018-05-09T08:24:31.210Z,53.00
2018-05-09T08:26:57.555Z,51.90
2018-05-09T08:29:23.795Z,49.80
2018-05-09T08:31:50.850Z,52.10
2018-05-09T08:34:17.121Z,52.00
2018-05-09T08:36:43.507Z,52.40
2018-05-09T08:39:10.425Z,51.90
2018-05-09T08:41:36.716Z,50.60
2018-05-09T08:44:03.906Z,51.00
2018-05-09T08:46:30.010Z,50.30
2018-05-09T08:48:56.284Z,50.50
2018-05-09T08:51:22.627Z,50.10
2018-05-09T08:53:48.910Z,50.00
2018-05-09T08:56:15.917Z,50.20
2018-05-09T08:58:42.245Z,50.20
2018-05-09T09:01:08.502Z,50.60
2018-05-09T09:03:34.830Z,52.80
2018-05-09T09:06:01.072Z,53.50
2018-05-09T09:08:28.330Z,52.20
2018-05-09T09:10:54.542Z,50.80
2018-05-09T09:13:20.872Z,51.20
2018-05-09T09:15:47.114Z,50.40
2018-05-09T09:18:13.356Z,50.20
2018-05-09T09:20:39.627Z,51.90
2018-05-09T09:23:05.880Z,49.80
2018-05-09T09:25:32.163Z,50.10
2018-05-09T09:27:58.417Z,49.80
2018-05-09T09:30:24.767Z,48.60
2018-05-09T09:32:51.383Z,48.40
2018-05-09T09:35:17.626Z,47.70
2018-05-09T09:37:43.878Z,48.50
2018-05-09T09:40:10.180Z,46.60
2018-05-09T09:42:36.480Z,46.80
2018-05-09T09:45:03.547Z,45.70
2018-05-09T09:47:30.516Z,45.50
2018-05-09T09:49:56.807Z,45.20
2018-05-09T09:52:23.095Z,46.70
2018-05-09T09:54:49.391Z,46.60
2018-05-09T09:57:15.698Z,46.90
2018-05-09T09:59:41.961Z,46.60
2018-05-09T10:02:08.225Z,47.10
2018-05-09T10:04:35.216Z,47.60
2018-05-09T10:07:01.477Z,47.80
2018-05-09T10:09:27.739Z,48.10
2018-05-09T10:11:54.756Z,47.20
2018-05-09T10:14:21.836Z,47.30
2018-05-09T10:16:48.111Z,43.50
2018-05-09T10:19:14.401Z,45.10
2018-05-09T10:21:40.704Z,45.30
2018-05-09T10:24:06.964Z,46.00
2018-05-09T10:26:33.610Z,47.30
2018-05-09T10:28:59.875Z,48.40
2018-05-09T10:31:26.957Z,47.80
2018-05-09T10:33:53.605Z,49.80
2018-05-09T10:36:20.612Z,49.00
2018-05-09T10:38:46.875Z,47.90
2018-05-09T10:41:13.911Z,49.30
2018-05-09T10:43:40.190Z,49.50
2018-05-09T10:46:06.446Z,49.90
2018-05-09T10:48:33.012Z,48.70
2018-05-09T10:50:59.532Z,49.40
2018-05-09T10:53:25.882Z,49.70
2018-05-09T10:55:52.142Z,46.60
2018-05-09T10:58:18.402Z,45.20
2018-05-09T11:00:44.693Z,49.00
2018-05-09T11:03:10.986Z,49.50
2018-05-09T11:05:37.226Z,45.80
2018-05-09T11:08:03.692Z,46.50
2018-05-09T11:10:30.188Z,47.60
2018-05-09T11:12:56.409Z,47.20
2018-05-09T11:15:23.400Z,44.10
2018-05-09T11:17:49.685Z,44.20
2018-05-09T11:20:15.989Z,46.90
2018-05-09T11:22:42.302Z,45.40
2018-05-09T11:25:08.549Z,45.80
2018-05-09T11:27:34.861Z,44.40
2018-05-09T11:30:01.922Z,44.10
2018-05-09T11:32:28.205Z,43.50
2018-05-09T11:34:54.472Z,44.50
2018-05-09T11:37:21.436Z,45.10
2018-05-09T11:39:48.471Z,46.30
2018-05-09T11:42:15.587Z,44.20
2018-05-09T11:44:41.891Z,44.10
2018-05-09T11:47:08.116Z,41.70
2018-05-09T11:49:34.436Z,38.90
2018-05-09T11:52:01.500Z,39.50
2018-05-09T11:54:28.558Z,38.30
2018-05-09T11:56:55.176Z,36.50
2018-05-09T11:59:21.515Z,39.40
2018-05-09T12:01:47.757Z,40.00
2018-05-09T12:04:14.075Z,40.80
2018-05-09T12:06:40.361Z,42.10
2018-05-09T12:09:06.718Z,41.50
2018-05-09T12:11:32.955Z,41.60
2018-05-09T12:13:59.208Z,38.80
2018-05-09T12:16:25.472Z,37.20
2018-05-09T12:18:51.745Z,39.40
2018-05-09T12:21:18.027Z,37.40
2018-05-09T12:23:44.258Z,40.30
2018-05-09T12:26:11.345Z,42.50
2018-05-09T12:28:38.452Z,41.70
2018-05-09T12:31:04.719Z,40.80
2018-05-09T12:33:31.031Z,40.70
2018-05-09T12:35:58.022Z,42.20
2018-05-09T12:38:24.315Z,43.10
2018-05-09T12:40:50.591Z,41.80
2018-05-09T12:43:16.866Z,43.10
2018-05-09T12:45:43.163Z,43.20
2018-05-09T12:48:09.436Z,42.60
2018-05-09T12:50:35.718Z,39.40
2018-05-09T12:53:02.728Z,40.50
2018-05-09T12:55:28.925Z,42.00
2018-05-09T12:57:55.596Z,42.00
2018-05-09T13:00:21.878Z,41.40
2018-05-09T13:02:48.197Z,40.90
2018-05-09T13:05:14.491Z,41.00
2018-05-09T13:07:41.517Z,41.90
2018-05-09T13:10:08.166Z,38.80
2018-05-09T13:12:34.449Z,38.70
2018-05-09T13:15:00.724Z,35.60
2018-05-09T13:17:27.008Z,37.60
2018-05-09T13:19:54.012Z,36.00
2018-05-09T13:22:20.276Z,35.90
2018-05-09T13:24:46.601Z,37.00
2018-05-09T13:27:12.856Z,33.30
2018-05-09T13:29:39.881Z,31.60
2018-05-09T13:32:06.268Z,27.50
2018-05-09T13:34:33.270Z,26.30
2018-05-09T13:36:59.565Z,24.80
2018-05-09T13:39:25.856Z,22.90
2018-05-09T13:41:52.151Z,23.10
2018-05-09T13:44:18.467Z,25.90
2018-05-09T13:46:44.762Z,26.40
2018-05-09T13:49:11.596Z,27.50
2018-05-09T13:51:38.592Z,27.40
2018-05-09T13:54:05.636Z,29.30
2018-05-09T13:56:32.652Z,29.20
2018-05-09T13:58:59.012Z,28.50
2018-05-09T14:01:25.341Z,28.80
2018-05-09T14:03:51.623Z,29.80
2018-05-09T14:06:18.825Z,29.10
2018-05-09T14:08:45.167Z,29.40
2018-05-09T14:11:12.227Z,29.10
2018-05-09T14:23:18.554Z,34.70
2018-05-09T14:25:44.873Z,36.10
2018-05-09T14:28:11.894Z,37.60
2018-05-09T14:30:38.232Z,38.30
2018-05-09T14:33:05.207Z,34.30
2018-05-09T14:35:32.256Z,31.30
2018-05-09T14:37:59.340Z,29.30
2018-05-09T14:40:25.588Z,29.10
2018-05-09T14:42:51.845Z,29.30
2018-05-09T14:45:18.151Z,27.30
2018-05-09T14:47:44.419Z,23.40
2018-05-09T14:50:10.752Z,21.50
2018-05-09T14:52:37.054Z,21.90
2018-05-09T14:55:03.311Z,20.30
2018-05-09T14:57:29.783Z,22.70
2018-05-09T14:59:56.053Z,22.70
2018-05-09T15:02:23.057Z,21.60
2018-05-09T15:04:49.333Z,23.30
2018-05-09T15:07:16.386Z,23.10
2018-05-09T15:09:43.414Z,24.30
2018-05-09T15:12:09.669Z,23.30
2018-05-09T15:14:36.977Z,25.60
2018-05-09T15:17:03.342Z,26.90
2018-05-09T15:19:29.953Z,27.40
2018-05-09T15:21:56.323Z,26.40
2018-05-09T15:24:22.838Z,24.50
2018-05-09T15:26:49.602Z,23.30
2018-05-09T15:29:15.901Z,23.70
2018-05-09T15:31:42.173Z,24.30
2018-05-09T15:34:08.486Z,22.70
2018-05-09T15:36:34.720Z,23.10
2018-05-09T15:39:01.163Z,25.10
2018-05-09T15:41:27.302Z,25.30
2018-05-09T15:43:53.892Z,26.40
2018-05-09T15:46:20.180Z,26.80
2018-05-09T15:48:47.389Z,27.80
2018-05-09T15:51:13.683Z,28.40
2018-05-09T15:53:39.964Z,28.00
2018-05-09T15:56:06.998Z,29.40
2018-05-09T15:58:33.347Z,28.80
2018-05-09T16:00:59.493Z,29.20
2018-05-09T16:03:26.482Z,30.00
2018-05-09T16:05:52.727Z,30.00
2018-05-09T16:08:19.013Z,31.00
2018-05-09T16:10:46.033Z,33.90
2018-05-09T16:13:12.363Z,33.40
2018-05-09T16:15:38.593Z,34.70
2018-05-09T16:18:04.848Z,36.30
2018-05-09T16:20:31.493Z,35.30
2018-05-09T16:22:57.792Z,35.80
2018-05-09T16:25:24.068Z,35.30
2018-05-09T16:27:50.350Z,37.20
2018-05-09T16:30:16.608Z,37.60
2018-05-09T16:32:42.826Z,38.20
2018-05-09T16:35:09.080Z,39.40
2018-05-09T16:37:35.322Z,40.40
2018-05-09T16:40:01.644Z,39.40
2018-05-09T16:42:27.914Z,40.00
2018-05-09T16:44:54.212Z,41.80
2018-05-09T16:47:20.509Z,40.90
2018-05-09T16:49:46.787Z,41.30
2018-05-09T16:52:13.023Z,43.40
2018-05-09T16:54:39.343Z,43.10
2018-05-09T16:57:05.622Z,41.60
2018-05-09T16:59:31.909Z,43.30
2018-05-09T17:01:58.925Z,41.80
2018-05-09T17:04:25.243Z,41.60
2018-05-09T17:06:51.491Z,43.10
2018-05-09T17:09:17.789Z,39.50
2018-05-09T17:11:44.792Z,39.90
2018-05-09T17:14:11.069Z,41.80
2018-05-09T17:16:38.090Z,40.90
2018-05-09T17:19:04.455Z,40.90
2018-05-09T17:21:43.621Z,37.50
2018-05-09T17:24:10.284Z,38.00
2018-05-09T17:26:36.553Z,38.50
2018-05-09T17:29:02.868Z,41.20
2018-05-09T17:31:29.118Z,41.70
2018-05-09T17:33:55.419Z,44.30
2018-05-09T17:36:22.401Z,43.20
2018-05-09T17:38:48.709Z,45.80
2018-05-09T17:41:14.993Z,46.00
2018-05-09T17:43:42.034Z,42.10
2018-05-09T17:46:08.290Z,45.30
2018-05-09T17:48:35.313Z,42.60
2018-05-09T17:51:01.539Z,40.40
2018-05-09T17:53:27.844Z,41.30
2018-05-09T17:55:54.108Z,42.50
2018-05-09T17:58:20.360Z,44.90
2018-05-09T18:00:46.631Z,46.40
2018-05-09T18:03:14.391Z,45.90
2018-05-09T18:05:41.444Z,48.20
2018-05-09T18:08:08.524Z,48.50
2018-05-09T18:10:34.875Z,47.50
2018-05-09T18:13:01.221Z,48.00
2018-05-09T18:15:27.550Z,48.50
2018-05-09T18:17:54.665Z,50.70
2018-05-09T18:20:21.712Z,51.90
2018-05-09T18:22:48.121Z,52.00
2018-05-09T18:25:14.482Z,51.90
2018-05-09T18:27:40.736Z,52.00
2018-05-09T18:30:07.795Z,53.10
2018-05-09T18:32:34.888Z,54.40
2018-05-09T18:35:01.281Z,53.90
2018-05-09T18:37:28.404Z,54.20
2018-05-09T18:39:55.431Z,54.10
2018-05-09T18:42:21.720Z,54.20
2018-05-09T18:44:48.808Z,55.30
2018-05-09T18:47:15.148Z,55.50
2018-05-09T18:49:41.454Z,55.40
2018-05-09T18:52:08.583Z,56.20
2018-05-09T18:54:34.808Z,56.20
2018-05-09T18:57:01.121Z,57.20
2018-05-09T18:59:28.591Z,57.00
2018-05-09T19:01:55.656Z,58.10
2018-05-09T19:04:21.979Z,58.10
2018-05-09T19:06:48.729Z,58.40
2018-05-09T19:09:14.989Z,57.00
2018-05-09T19:11:41.315Z,57.20
2018-05-09T19:14:07.634Z,57.80
2018-05-09T19:16:34.656Z,58.00
2018-05-09T19:19:01.740Z,57.60
2018-05-09T19:21:28.430Z,56.50
2018-05-09T19:23:54.679Z,57.80
2018-05-09T19:26:21.704Z,58.40
2018-05-09T19:28:48.031Z,58.80
2018-05-09T19:31:14.320Z,57.60
2018-05-09T19:33:41.339Z,56.90
2018-05-09T19:36:07.620Z,57.30
2018-05-09T19:38:33.939Z,57.40
2018-05-09T19:41:00.233Z,57.90
2018-05-09T19:43:26.513Z,57.00
2018-05-09T19:45:53.246Z,58.00
2018-05-09T19:48:19.543Z,57.30
2018-05-09T19:50:46.598Z,56.20
2018-05-09T19:53:14.675Z,54.90
2018-05-09T19:55:42.416Z,55.60
2018-05-09T19:58:09.874Z,55.80
2018-05-09T20:00:37.173Z,56.50
2018-05-09T20:03:04.055Z,56.80
2018-05-09T20:05:30.348Z,57.90
2018-05-09T20:07:56.622Z,58.40
2018-05-09T20:10:22.929Z,57.70
2018-05-09T20:12:49.251Z,58.50
2018-05-09T20:15:15.877Z,57.70
2018-05-09T20:17:44.554Z,58.20
2018-05-09T20:20:11.631Z,57.50
2018-05-09T20:22:38.856Z,57.60
2018-05-09T20:25:05.669Z,56.20
2018-05-09T20:27:31.943Z,56.60
2018-05-09T20:30:00.075Z,56.00
2018-05-09T20:32:38.913Z,54.70
2018-05-09T20:35:05.645Z,55.50
2018-05-09T20:37:32.335Z,56.90
2018-05-09T20:39:58.960Z,56.00
2018-05-09T20:42:26.071Z,54.90
2018-05-09T20:44:52.353Z,55.60
2018-05-09T20:47:18.714Z,56.20
2018-05-09T20:49:45.695Z,56.80
2018-05-09T20:52:11.999Z,57.10
2018-05-09T20:54:39.659Z,57.00
2018-05-09T20:57:06.399Z,56.50
2018-05-09T20:59:32.715Z,57.40
2018-05-09T21:01:59.045Z,57.40
2018-05-09T21:04:25.503Z,57.00
2018-05-09T21:06:52.153Z,56.80
2018-05-09T21:09:18.809Z,56.60
2018-05-09T21:12:07.873Z,56.50
2018-05-09T21:14:34.095Z,57.30
2018-05-09T21:17:00.344Z,57.70
2018-05-09T21:19:26.621Z,59.50
2018-05-09T21:21:52.878Z,58.70
2018-05-09T21:24:19.525Z,58.40
2018-05-09T21:26:45.768Z,58.50
2018-05-09T21:29:12.159Z,58.80
2018-05-09T21:31:38.424Z,59.30
2018-05-09T21:34:04.758Z,59.50
2018-05-09T21:36:31.129Z,59.80
2018-05-09T21:38:57.775Z,59.70
2018-05-09T21:41:24.042Z,59.80
2018-05-09T21:43:51.065Z,61.00
2018-05-09T21:46:17.383Z,61.70
2018-05-09T21:48:43.649Z,62.40
2018-05-09T21:51:09.965Z,62.90
2018-05-09T21:53:36.208Z,64.30
2018-05-09T21:56:02.920Z,64.70
2018-05-09T21:58:29.153Z,65.40
2018-05-09T22:00:55.496Z,67.00
2018-05-09T22:03:22.885Z,66.00
2018-05-09T22:05:49.201Z,65.00
2018-05-09T22:08:15.441Z,64.80
2018-05-09T22:10:41.713Z,64.30
2018-05-09T22:13:08.780Z,64.40
2018-05-09T22:15:35.864Z,66.30
2018-05-09T22:18:02.106Z,63.30
2018-05-09T22:20:28.388Z,62.20
2018-05-09T22:22:54.668Z,61.90
2018-05-09T22:25:20.893Z,61.40
2018-05-09T22:27:47.204Z,62.20
2018-05-09T22:30:13.842Z,64.40
2018-05-09T22:32:40.535Z,66.40
2018-05-09T22:35:06.780Z,66.50
2018-05-09T22:37:33.036Z,65.80
2018-05-09T22:39:59.287Z,66.60
2018-05-09T22:42:25.544Z,66.60
2018-05-09T22:44:52.575Z,68.30
2018-05-09T22:47:18.806Z,68.80
2018-05-09T22:49:45.820Z,68.70
2018-05-09T22:52:12.144Z,67.90
2018-05-09T22:54:38.385Z,69.80
2018-05-09T22:57:04.653Z,66.50
2018-05-09T22:59:30.926Z,65.50
2018-05-09T23:01:57.179Z,64.50
2018-05-09T23:04:24.206Z,65.30
2018-05-09T23:06:50.469Z,64.40
2018-05-09T23:09:17.449Z,65.20
2018-05-09T23:11:44.494Z,64.40
2018-05-09T23:14:10.810Z,63.70
2018-05-09T23:16:37.808Z,64.90
2018-05-09T23:19:04.430Z,66.30
2018-05-09T23:21:30.754Z,69.60
2018-05-09T23:23:57.026Z,69.30
2018-05-09T23:26:23.273Z,69.10
2018-05-09T23:28:49.524Z,67.70
2018-05-09T23:31:15.769Z,66.90
2018-05-09T23:33:42.770Z,67.40
2018-05-09T23:36:09.030Z,66.20
2018-05-09T23:38:35.315Z,66.70
2018-05-09T23:41:02.304Z,67.70
2018-05-09T23:43:28.624Z,68.60
2018-05-09T23:45:54.909Z,70.30
2018-05-09T23:48:21.243Z,72.10
2018-05-09T23:50:47.549Z,72.60
2018-05-09T23:53:13.819Z,74.40
2018-05-09T23:55:40.212Z,75.20
2018-05-09T23:58:06.395Z,75.90
